Tropical Cyclones
[Index]
Main Index Home Page Stock Weather Photos Extreme Storms Discussion Storm News and Storm Chasing Reports Tropical Cyclones / Hurricanes / Typhoons Weather Data and Links Wild Fires / Bushfires Weather Observation Techniques Weather Picture Catalogue Tornado Pictures and Reports Stock Video Footage and DVDs for sale
Season 2009-2010 Tropical Cyclone OLI Track Map
Season 2009-2010 Summaries (Operational Data): [AU] [SIO] [SPAC] [SH]
<<- Previous TC | 2009-2010 Season | Next TC ->>

click for intensity scale information  Lat/long Grid: Show Hide

 Date Labels: Show Hide

Operational Tropical Cyclone Data : JTWC Advisories

Name: OLI
Number: 1012

29 Jan 2010 12:00 UTC to 08 Feb 2010 18:00 UTC

    date/time    lat    long     hPa   cat  kts
2010-01-29 12   12.0   176.8    1002         25          
2010-01-29 18   12.0   179.5    1002         25          
2010-01-30 06   11.4   178.8W   1000         25          
2010-01-30 18   11.5   175.5W   1000         25          
2010-01-31 00   11.0   175.5W    999         25          
2010-01-31 06   11.0   172.0W    997         25          
2010-01-31 18   11.5   168.4W    996         30          
2010-02-01 00   11.4   167.0W    995         30          
2010-02-01 06   12.4   164.9W    995         30          
2010-02-01 12   12.7   163.5W    990    1    40          
2010-02-01 18   14.2   162.3W    985    2    50          
2010-02-02 00   15.1   161.0W    985    2    50          
2010-02-02 06   14.3   161.0W    987    1    45          
2010-02-02 12   14.7   159.8W    990    1    40          
2010-02-02 18   14.9   158.5W    990    1    40          
2010-02-03 00   15.3   157.7W    987    1    45          
2010-02-03 06   15.8   156.3W    985    2    50          
2010-02-03 12   16.3   155.5W    975    2    60          
2010-02-03 18   16.6   154.2W    975    2    60          
2010-02-04 00   17.3   153.5W    970    3    65          
2010-02-04 06   17.9   152.8W    950    3    80          
2010-02-04 12   18.7   152.4W    925    4   100          
2010-02-04 18   19.5   151.9W    925    4   100          
2010-02-05 00   20.5   151.2W    925    4   100          
2010-02-05 06   21.6   150.6W    925    4   100          
2010-02-05 12   22.8   149.7W    925    4   100          
2010-02-05 18   24.1   148.9W    955    3    80          
2010-02-06 00   25.0   148.5W    965    3    65          
2010-02-06 06   26.0   147.8W    975    2    60          
2010-02-06 12   28.2   146.2W    980    2    55          
2010-02-06 18   30.0   144.0W    991    1    40          
2010-02-07 00   31.0   142.0W    993    1    40          
2010-02-07 06   32.0   140.0W    990    2    50          
2010-02-07 12   34.0   137.0W    992    2    50          
2010-02-07 18   35.0   133.0W    997    1    40          
2010-02-08 00   36.0   130.0W    999    1    40          
2010-02-08 06   38.0   125.0W   1001    1    40          
2010-02-08 12   40.0   122.0W    997    1    40          
2010-02-08 18   41.0   120.0W    998    1    40          
Winds are 10-min average.

Tropical cyclone tracks developed by Michael Bath using operational warnings and advisories and Google Maps.


[Australian Severe Weather index] [Copyright Notice] [Email Contacts] [Search This Site] [Privacy Policy]
Document: tropical_cyclone_oli.htm Updated: 28 May 2013